createdAt,value
2019-01-14T18:23:45.061Z,60.02
2019-01-14T18:26:21.671Z,59.92
2019-01-14T21:00:00.188Z,61.49
2019-01-14T21:02:33.486Z,61.55
2019-01-14T21:06:01.699Z,61.22
2019-01-14T21:08:35.022Z,61.81
2019-01-14T21:11:08.616Z,61.72
2019-01-14T21:13:41.938Z,62.23
2019-01-14T21:16:15.394Z,62.25
2019-01-14T21:18:48.763Z,62.04
2019-01-14T21:21:22.348Z,61.90
2019-01-14T21:23:56.519Z,62.02
2019-01-14T21:26:30.019Z,62.06
2019-01-14T21:29:03.407Z,62.12
2019-01-14T21:31:36.920Z,62.40
2019-01-14T21:34:10.232Z,62.29
2019-01-14T21:36:43.583Z,62.24
2019-01-14T21:39:16.984Z,62.00
2019-01-14T21:41:50.347Z,62.24
2019-01-14T21:44:23.813Z,62.10
2019-01-14T21:46:57.324Z,61.95
2019-01-14T21:49:30.645Z,62.08
2019-01-14T21:52:04.244Z,61.98
2019-01-14T21:54:37.569Z,61.86
2019-01-14T21:57:11.026Z,61.74
2019-01-14T21:59:44.345Z,61.80
2019-01-14T22:02:17.781Z,61.89
2019-01-14T22:04:51.116Z,61.64
2019-01-14T22:07:24.534Z,61.78
2019-01-14T22:09:57.938Z,61.58
2019-01-14T22:12:31.348Z,61.62
2019-01-14T22:15:07.306Z,61.44
2019-01-14T22:17:40.739Z,60.34
2019-01-14T22:20:16.697Z,61.21
2019-01-14T22:22:50.401Z,61.00
2019-01-14T22:25:23.794Z,60.99
2019-01-14T22:27:57.232Z,60.84
2019-01-14T22:30:31.439Z,60.95
2019-01-14T22:33:05.172Z,60.76
2019-01-14T22:35:38.561Z,60.66
2019-01-14T22:38:12.067Z,60.64
2019-01-14T22:40:45.458Z,60.42
2019-01-14T22:43:18.891Z,60.51
2019-01-14T22:45:52.298Z,60.52
2019-01-14T22:48:25.887Z,60.59
2019-01-14T22:50:59.216Z,60.81
2019-01-14T22:53:32.791Z,60.69
2019-01-14T22:56:06.201Z,60.74
2019-01-14T22:58:39.632Z,60.89
2019-01-14T23:01:16.202Z,61.02
2019-01-14T23:03:49.715Z,61.08
2019-01-14T23:06:23.035Z,61.07
2019-01-14T23:08:56.405Z,60.99
2019-01-14T23:11:29.791Z,61.24
2019-01-14T23:14:03.240Z,61.10
2019-01-14T23:16:36.626Z,61.33
2019-01-14T23:19:10.063Z,61.45
2019-01-14T23:21:43.407Z,61.58
2019-01-14T23:24:17.070Z,61.24
2019-01-14T23:26:50.396Z,61.64
2019-01-14T23:29:23.827Z,61.67
2019-01-14T23:31:57.163Z,61.64
2019-01-14T23:34:30.587Z,61.44
2019-01-14T23:37:03.973Z,61.75
2019-01-14T23:39:37.415Z,61.43
2019-01-14T23:42:10.756Z,61.64
2019-01-14T23:44:44.523Z,61.71
2019-01-14T23:47:17.894Z,61.39
2019-01-14T23:49:51.418Z,61.66
2019-01-14T23:52:24.828Z,61.68
2019-01-14T23:54:58.293Z,61.63
2019-01-14T23:57:31.640Z,61.57
